Time;durP1;ratioP1;P1;durP2;ratioP2;P2;SDS_P1;SDS_P2;PMS_P1;PMS_P2;Temp;Humidity;BMP_temperature;BMP_pressure;BME280_temperature;BME280_humidity;BME280_pressure;Samples;Min_cycle;Max_cycle;Signal;HPM_P1;HPM_P2
2024/03/05 00:02:13;;;;;;;10.93;5.75;;;4.60;91.00;;;;;;5030087;28;20022;-63
2024/03/05 00:04:38;;;;;;;8.05;4.88;;;4.60;91.10;;;;;;5028616;28;20363;-63
2024/03/05 00:07:04;;;;;;;9.70;5.03;;;4.60;91.20;;;;;;5028344;28;20148;-64
2024/03/05 00:09:30;;;;;;;10.00;5.10;;;4.60;91.10;;;;;;5039214;28;20044;-63
2024/03/05 00:11:56;;;;;;;8.55;5.25;;;4.60;91.20;;;;;;5040552;28;20029;-65
2024/03/05 00:14:22;;;;;;;11.50;5.72;;;4.60;91.30;;;;;;5031183;28;20064;-63
2024/03/05 00:16:47;;;;;;;8.63;5.32;;;4.60;91.30;;;;;;5036647;28;20028;-63
2024/03/05 00:19:13;;;;;;;9.77;4.63;;;4.60;91.30;;;;;;5041312;28;20075;-63
2024/03/05 00:21:39;;;;;;;10.15;5.80;;;4.60;91.10;;;;;;5029403;28;20052;-64
2024/03/05 00:24:05;;;;;;;9.05;5.28;;;4.60;91.20;;;;;;5035627;28;20102;-64
2024/03/05 00:26:31;;;;;;;8.57;4.32;;;4.60;91.30;;;;;;5032260;28;20112;-65
2024/03/05 00:28:58;;;;;;;7.22;4.43;;;4.60;91.20;;;;;;5035135;28;20467;-64
2024/03/05 00:31:24;;;;;;;10.00;4.82;;;4.50;91.20;;;;;;5030996;28;20119;-63
2024/03/05 00:33:50;;;;;;;8.15;4.93;;;4.50;91.30;;;;;;5036465;28;20045;-63
2024/03/05 00:36:15;;;;;;;11.75;5.60;;;4.50;91.30;;;;;;5027891;28;20078;-65
2024/03/05 00:38:40;;;;;;;7.97;4.63;;;4.40;91.30;;;;;;5035233;28;20063;-64
2024/03/05 00:41:07;;;;;;;8.90;5.13;;;4.40;91.40;;;;;;5038199;28;20098;-63
2024/03/05 00:43:32;;;;;;;10.95;4.82;;;4.40;91.40;;;;;;5033458;28;20057;-64
2024/03/05 00:45:58;;;;;;;8.48;4.68;;;4.40;91.60;;;;;;5034203;28;20120;-64
2024/03/05 00:48:23;;;;;;;10.65;5.63;;;4.30;91.60;;;;;;5031459;28;20041;-63
2024/03/05 00:50:50;;;;;;;8.40;4.22;;;4.30;91.60;;;;;;5038082;28;20506;-63
2024/03/05 00:53:16;;;;;;;11.93;5.22;;;4.30;91.60;;;;;;5035269;28;20104;-63
2024/03/05 00:55:42;;;;;;;10.38;5.40;;;4.30;91.70;;;;;;5032766;28;20056;-64
2024/03/05 00:58:07;;;;;;;9.20;5.03;;;4.30;91.70;;;;;;5034395;28;20367;-64
2024/03/05 01:00:33;;;;;;;8.90;4.43;;;4.30;91.80;;;;;;5033790;28;20029;-63
2024/03/05 01:02:58;;;;;;;9.55;5.25;;;4.30;91.80;;;;;;5032961;28;20037;-63
2024/03/05 01:05:24;;;;;;;11.43;5.45;;;4.20;91.80;;;;;;5035646;28;20041;-63
2024/03/05 01:07:49;;;;;;;13.20;4.85;;;4.30;91.90;;;;;;5034265;28;20051;-64
2024/03/05 01:10:15;;;;;;;10.48;5.03;;;4.30;91.90;;;;;;5032195;28;20134;-63
2024/03/05 01:12:40;;;;;;;12.60;5.25;;;4.30;91.90;;;;;;5032326;28;20451;-62
2024/03/05 01:15:06;;;;;;;9.40;4.72;;;4.30;91.90;;;;;;5034885;28;20033;-62
2024/03/05 01:17:32;;;;;;;8.05;4.75;;;4.30;91.90;;;;;;5033411;28;20025;-63
2024/03/05 01:19:58;;;;;;;7.15;4.05;;;4.30;92.00;;;;;;5040178;28;20132;-63
2024/03/05 01:22:23;;;;;;;8.85;5.05;;;4.30;92.00;;;;;;5031948;28;20112;-63
2024/03/05 01:24:52;;;;;;;10.93;5.57;;;4.30;92.00;;;;;;5031711;28;20045;-62
2024/03/05 01:27:21;;;;;;;8.65;4.85;;;4.30;92.10;;;;;;5030975;28;20067;-62
2024/03/05 01:29:47;;;;;;;8.45;4.70;;;4.30;92.10;;;;;;5034704;28;20057;-62
2024/03/05 01:32:13;;;;;;;9.50;4.82;;;4.30;92.10;;;;;;5034400;28;20135;-62
2024/03/05 01:34:43;;;;;;;7.88;5.10;;;4.30;92.00;;;;;;5034873;28;20397;-63
2024/03/05 01:37:10;;;;;;;10.55;5.75;;;4.30;92.20;;;;;;5026483;28;20476;-62
2024/03/05 01:39:35;;;;;;;12.23;5.20;;;4.30;92.20;;;;;;5032176;28;20030;-62
2024/03/05 01:42:01;;;;;;;9.00;4.72;;;4.30;92.30;;;;;;5036892;28;20110;-62
2024/03/05 01:44:28;;;;;;;8.35;4.65;;;4.30;92.30;;;;;;5038812;28;20071;-63
2024/03/05 01:46:57;;;;;;;8.68;4.80;;;4.30;92.40;;;;;;5033377;28;20041;-62
2024/03/05 01:49:23;;;;;;;10.77;5.20;;;4.30;92.30;;;;;;5040471;28;20037;-62
2024/03/05 01:51:50;;;;;;;11.48;5.57;;;4.30;92.30;;;;;;5040274;28;20029;-65
2024/03/05 01:54:17;;;;;;;8.90;4.45;;;4.30;92.40;;;;;;5036693;28;20025;-63
2024/03/05 01:56:47;;;;;;;8.95;5.38;;;4.20;92.40;;;;;;5038971;28;20039;-64
2024/03/05 01:59:14;;;;;;;8.80;4.43;;;4.30;92.50;;;;;;5034977;28;20094;-64
2024/03/05 02:01:41;;;;;;;8.50;4.50;;;4.30;92.40;;;;;;5033192;28;20048;-63
2024/03/05 02:04:08;;;;;;;10.43;5.18;;;4.20;92.50;;;;;;5036103;28;20033;-63
2024/03/05 02:06:36;;;;;;;8.98;4.47;;;4.20;92.70;;;;;;5033197;28;20048;-66
2024/03/05 02:09:02;;;;;;;8.88;5.05;;;4.20;92.70;;;;;;5035038;28;20085;-63
2024/03/05 02:11:27;;;;;;;8.48;4.70;;;4.30;92.70;;;;;;5036362;28;20104;-65
2024/03/05 02:13:53;;;;;;;10.45;5.20;;;4.30;92.70;;;;;;5035658;28;20025;-63
2024/03/05 02:16:18;;;;;;;8.82;5.53;;;4.30;92.80;;;;;;5043059;28;20227;-63
2024/03/05 02:18:44;;;;;;;11.32;4.97;;;4.20;92.70;;;;;;5040230;28;20342;-63
2024/03/05 02:21:21;;;;;;;11.90;5.00;;;4.20;92.70;;;;;;5043701;28;20037;-64
2024/03/05 02:23:48;;;;;;;7.13;4.10;;;4.20;92.60;;;;;;5042595;28;20021;-64
2024/03/05 02:26:14;;;;;;;10.80;5.82;;;4.30;92.70;;;;;;5044722;28;20330;-64
2024/03/05 02:28:40;;;;;;;9.82;5.53;;;4.20;92.80;;;;;;5039985;28;20059;-64
2024/03/05 02:31:06;;;;;;;9.05;4.70;;;4.20;92.90;;;;;;5045338;28;20049;-63
2024/03/05 02:33:34;;;;;;;9.15;4.32;;;4.20;92.80;;;;;;5036633;28;20121;-64
2024/03/05 02:36:00;;;;;;;7.95;4.90;;;4.20;92.90;;;;;;5033726;28;20030;-64
2024/03/05 02:38:26;;;;;;;9.55;4.82;;;4.20;92.90;;;;;;5040800;28;20436;-63
2024/03/05 02:40:52;;;;;;;8.95;4.88;;;4.20;92.90;;;;;;5036603;28;20033;-65
2024/03/05 02:43:17;;;;;;;10.07;4.80;;;4.20;92.80;;;;;;5037330;28;20057;-63
2024/03/05 02:45:43;;;;;;;9.05;4.57;;;4.30;92.90;;;;;;5035103;28;20030;-63
2024/03/05 02:48:09;;;;;;;9.35;4.60;;;4.20;92.90;;;;;;5033929;28;20033;-63
2024/03/05 02:50:35;;;;;;;7.97;4.30;;;4.30;93.00;;;;;;5037250;28;20040;-63
2024/03/05 02:53:00;;;;;;;9.77;4.82;;;4.30;93.00;;;;;;5046733;28;20032;-63
2024/03/05 02:55:27;;;;;;;8.48;4.68;;;4.30;93.00;;;;;;5037669;28;20551;-63
2024/03/05 02:57:53;;;;;;;10.50;4.85;;;4.30;93.10;;;;;;5035846;28;20354;-64
2024/03/05 03:00:18;;;;;;;9.05;4.88;;;4.20;93.00;;;;;;5035065;28;20108;-64
2024/03/05 03:02:48;;;;;;;8.32;4.45;;;4.20;93.10;;;;;;5029693;28;20136;-64
2024/03/05 03:05:16;;;;;;;10.07;5.32;;;4.20;93.00;;;;;;5043532;28;20116;-64
2024/03/05 03:07:43;;;;;;;10.18;4.80;;;4.20;93.20;;;;;;5038686;28;20024;-64
2024/03/05 03:10:11;;;;;;;10.30;4.57;;;4.20;93.20;;;;;;5040187;28;20466;-64
2024/03/05 03:12:37;;;;;;;10.73;4.88;;;4.20;93.20;;;;;;5032550;28;20087;-63
2024/03/05 03:15:02;;;;;;;7.65;4.93;;;4.20;93.20;;;;;;5033221;28;20039;-64
2024/03/05 03:17:28;;;;;;;8.93;4.78;;;4.20;93.20;;;;;;5031779;28;20703;-63
2024/03/05 03:19:53;;;;;;;8.60;4.93;;;4.10;93.20;;;;;;5036887;28;20052;-65
2024/03/05 03:22:19;;;;;;;10.88;5.25;;;4.10;93.30;;;;;;5038920;28;20105;-63
2024/03/05 03:24:44;;;;;;;9.57;4.97;;;4.20;93.40;;;;;;5035088;28;20327;-64
2024/03/05 03:27:11;;;;;;;9.18;4.82;;;4.10;93.40;;;;;;5031555;28;20083;-63
2024/03/05 03:29:40;;;;;;;11.07;5.43;;;4.10;93.40;;;;;;5034816;28;20029;-64
2024/03/05 03:32:07;;;;;;;10.25;5.00;;;4.10;93.50;;;;;;5036808;28;20034;-64
2024/03/05 03:34:32;;;;;;;8.18;4.22;;;4.10;93.50;;;;;;5036244;28;20171;-63
2024/03/05 03:36:58;;;;;;;9.57;4.78;;;4.10;93.50;;;;;;5037563;28;20517;-63
2024/03/05 03:39:23;;;;;;;9.23;5.15;;;4.10;93.60;;;;;;5035699;28;20385;-63
2024/03/05 03:41:53;;;;;;;9.68;4.75;;;4.10;93.60;;;;;;5032654;28;20081;-65
2024/03/05 03:44:20;;;;;;;12.98;5.82;;;4.10;93.60;;;;;;5033062;28;20156;-64
2024/03/05 03:46:45;;;;;;;9.43;5.13;;;4.10;93.60;;;;;;5032416;28;20148;-64
2024/03/05 03:49:11;;;;;;;10.77;5.53;;;4.10;93.60;;;;;;5028863;28;20112;-64
2024/03/05 03:51:38;;;;;;;12.60;5.63;;;4.10;93.60;;;;;;5036133;28;20056;-63
2024/03/05 03:54:04;;;;;;;11.20;5.53;;;4.10;93.60;;;;;;5039234;28;20032;-63
2024/03/05 03:56:30;;;;;;;10.05;4.82;;;4.10;93.70;;;;;;5034058;28;20029;-66
2024/03/05 03:58:56;;;;;;;9.13;5.10;;;4.20;93.60;;;;;;5030677;28;20029;-63
2024/03/05 04:01:22;;;;;;;9.35;5.20;;;4.20;93.60;;;;;;5028046;28;20357;-63
2024/03/05 04:03:48;;;;;;;10.95;5.40;;;4.20;93.70;;;;;;5037145;28;20025;-63
2024/03/05 04:06:14;;;;;;;10.10;5.40;;;4.10;93.70;;;;;;5040525;28;20633;-64
2024/03/05 04:08:40;;;;;;;10.40;5.97;;;4.10;93.70;;;;;;5031807;28;20036;-63
2024/03/05 04:11:06;;;;;;;12.50;5.85;;;4.10;93.70;;;;;;5040129;28;20089;-64
2024/03/05 04:13:31;;;;;;;9.88;5.32;;;4.10;93.70;;;;;;5032097;28;20108;-63
2024/03/05 04:15:59;;;;;;;9.25;5.28;;;4.10;93.80;;;;;;5037240;28;20442;-64
2024/03/05 04:18:25;;;;;;;12.80;5.95;;;4.10;93.70;;;;;;5042699;28;20436;-64
2024/03/05 04:20:53;;;;;;;10.77;5.20;;;4.10;93.80;;;;;;5037824;28;20029;-63
2024/03/05 04:23:20;;;;;;;11.57;5.93;;;4.10;93.80;;;;;;5037469;28;20390;-64
2024/03/05 04:25:47;;;;;;;12.48;6.03;;;4.10;93.70;;;;;;5034305;28;20414;-64
2024/03/05 04:28:12;;;;;;;14.05;6.25;;;4.00;93.70;;;;;;5030811;28;20100;-64
2024/03/05 04:30:39;;;;;;;10.45;5.38;;;4.00;93.80;;;;;;5038918;28;20444;-64
2024/03/05 04:33:08;;;;;;;11.48;6.03;;;4.00;93.90;;;;;;5025854;28;20120;-64
2024/03/05 04:35:34;;;;;;;11.07;6.25;;;4.00;93.90;;;;;;5037140;28;20071;-65
2024/03/05 04:38:00;;;;;;;11.52;5.80;;;4.00;94.00;;;;;;5029668;28;20060;-64
2024/03/05 04:40:26;;;;;;;13.10;6.05;;;3.90;93.90;;;;;;5027663;28;20091;-64
2024/03/05 04:42:51;;;;;;;11.40;6.03;;;4.00;94.10;;;;;;5036240;28;20054;-64
2024/03/05 04:45:17;;;;;;;11.35;6.15;;;4.00;94.10;;;;;;5031191;28;20079;-64
2024/03/05 04:47:43;;;;;;;12.98;5.38;;;4.00;94.00;;;;;;5030558;28;20102;-64
2024/03/05 04:50:09;;;;;;;10.20;5.65;;;4.00;94.10;;;;;;5040248;28;20117;-65
2024/03/05 04:52:35;;;;;;;17.92;6.80;;;4.00;94.00;;;;;;5043509;28;20024;-64
2024/03/05 04:55:01;;;;;;;12.20;5.80;;;3.90;94.00;;;;;;5036491;28;20029;-64
2024/03/05 04:57:26;;;;;;;16.52;6.80;;;4.00;94.00;;;;;;5032507;28;20079;-64
2024/03/05 04:59:52;;;;;;;10.50;6.05;;;3.90;93.80;;;;;;5043395;28;20108;-64
2024/03/05 05:02:17;;;;;;;11.30;6.00;;;4.00;93.90;;;;;;5033988;28;20061;-64
2024/03/05 05:04:43;;;;;;;10.63;5.40;;;4.00;94.00;;;;;;5029283;28;20048;-64
2024/03/05 05:07:09;;;;;;;12.90;6.35;;;4.00;93.80;;;;;;5033469;28;20032;-65
2024/03/05 05:09:39;;;;;;;10.40;6.43;;;4.00;93.80;;;;;;5040406;28;20090;-63
2024/03/05 05:12:05;;;;;;;9.90;5.47;;;4.00;93.80;;;;;;5038835;28;20129;-63
2024/03/05 05:14:31;;;;;;;12.80;6.00;;;4.00;93.60;;;;;;5037397;28;20324;-63
2024/03/05 05:17:00;;;;;;;10.73;5.85;;;4.00;93.80;;;;;;5034405;28;20446;-63
2024/03/05 05:19:25;;;;;;;12.07;5.88;;;4.00;93.70;;;;;;5040450;28;20033;-63
2024/03/05 05:21:51;;;;;;;11.73;6.03;;;4.00;93.60;;;;;;5031319;28;20051;-63
2024/03/05 05:24:18;;;;;;;11.00;5.93;;;4.10;93.60;;;;;;5041066;28;20124;-63
2024/03/05 05:26:43;;;;;;;10.88;5.95;;;4.10;93.60;;;;;;5036992;28;20037;-65
2024/03/05 05:29:09;;;;;;;11.73;6.57;;;4.10;93.60;;;;;;5034463;28;20111;-62
2024/03/05 05:31:36;;;;;;;11.45;5.88;;;4.10;93.60;;;;;;5036318;28;20087;-61
2024/03/05 05:34:02;;;;;;;11.25;6.28;;;4.10;93.50;;;;;;5027184;28;20108;-61
2024/03/05 05:36:28;;;;;;;10.20;5.72;;;4.10;93.60;;;;;;5031192;28;20501;-61
2024/03/05 05:38:54;;;;;;;9.95;5.50;;;4.00;93.40;;;;;;5032525;28;20041;-61
2024/03/05 05:41:19;;;;;;;13.70;5.97;;;4.00;93.40;;;;;;5028386;28;20037;-63
2024/03/05 05:43:45;;;;;;;13.63;6.20;;;4.00;93.40;;;;;;5030112;28;20029;-61
2024/03/05 05:46:21;;;;;;;12.70;6.60;;;4.00;93.40;;;;;;5037111;28;20385;-62
2024/03/05 05:48:49;;;;;;;12.50;6.30;;;4.00;93.40;;;;;;5033887;28;20100;-62
2024/03/05 05:51:15;;;;;;;13.43;6.20;;;4.10;93.50;;;;;;5030331;28;20030;-63
2024/03/05 05:53:40;;;;;;;14.68;6.13;;;4.10;93.30;;;;;;5038963;28;20167;-61
2024/03/05 05:56:06;;;;;;;14.65;7.43;;;4.10;93.20;;;;;;5031238;28;20108;-62
2024/03/05 05:58:35;;;;;;;11.55;6.43;;;4.00;93.20;;;;;;5025618;28;20970;-62
2024/03/05 06:01:05;;;;;;;13.40;6.93;;;4.00;93.10;;;;;;5029230;28;20322;-62
2024/03/05 06:03:31;;;;;;;13.55;7.18;;;4.00;93.10;;;;;;5027596;28;20049;-61
2024/03/05 06:05:57;;;;;;;13.63;6.68;;;4.00;93.10;;;;;;5031335;28;20031;-61
2024/03/05 06:08:22;;;;;;;11.10;6.35;;;4.00;92.80;;;;;;5030754;28;20029;-61
2024/03/05 06:10:48;;;;;;;12.25;6.78;;;4.00;93.00;;;;;;5039498;28;20119;-61
2024/03/05 06:13:15;;;;;;;13.27;6.60;;;4.00;92.80;;;;;;5040109;28;20024;-62
2024/03/05 06:15:40;;;;;;;13.07;7.13;;;4.00;92.60;;;;;;5037036;28;20457;-63
2024/03/05 06:18:06;;;;;;;13.50;6.63;;;4.00;92.80;;;;;;5036638;28;20056;-61
2024/03/05 06:20:32;;;;;;;12.95;6.80;;;3.90;92.60;;;;;;5038218;28;20033;-62
2024/03/05 06:22:59;;;;;;;11.27;6.32;;;3.90;92.60;;;;;;5028245;28;20030;-62
2024/03/05 06:25:26;;;;;;;11.48;6.45;;;3.80;92.50;;;;;;5039477;28;20092;-61
2024/03/05 06:27:52;;;;;;;11.70;6.85;;;3.90;92.60;;;;;;5031433;28;20061;-61
2024/03/05 06:30:18;;;;;;;11.00;6.32;;;3.90;92.50;;;;;;5027789;28;20025;-61
2024/03/05 06:32:47;;;;;;;13.57;7.10;;;3.90;92.30;;;;;;5028800;28;20113;-60
2024/03/05 06:35:22;;;;;;;13.25;6.35;;;3.90;92.20;;;;;;5031325;28;20033;-61
2024/03/05 06:37:48;;;;;;;11.40;5.85;;;3.80;92.10;;;;;;5032160;28;20128;-61
2024/03/05 06:40:22;;;;;;;11.63;6.13;;;3.80;92.00;;;;;;5033066;28;20045;-62
2024/03/05 06:42:52;;;;;;;9.75;5.72;;;3.80;92.10;;;;;;5036348;28;20125;-62
2024/03/05 06:45:27;;;;;;;12.02;6.13;;;3.90;92.00;;;;;;5039264;28;20464;-61
2024/03/05 06:47:56;;;;;;;12.65;6.30;;;3.90;92.00;;;;;;5035018;28;20037;-63
2024/03/05 06:50:23;;;;;;;14.15;6.05;;;3.90;91.70;;;;;;5031096;28;20405;-62
2024/03/05 06:58:23;;;;;;;11.13;5.53;;;3.90;91.80;;;;;;5042057;28;20103;-61
2024/03/05 07:00:49;;;;;;;18.30;6.32;;;3.90;91.70;;;;;;5034391;28;20029;-62
2024/03/05 07:03:14;;;;;;;11.63;5.63;;;3.90;91.60;;;;;;5037292;28;20033;-61
2024/03/05 07:05:40;;;;;;;11.68;6.47;;;3.90;91.60;;;;;;5030510;28;20044;-62
2024/03/05 07:08:08;;;;;;;9.60;5.90;;;4.00;91.70;;;;;;5041453;28;20033;-62
2024/03/05 07:10:37;;;;;;;12.88;5.50;;;4.00;91.70;;;;;;5044397;28;20036;-62
2024/03/05 07:13:02;;;;;;;9.85;5.57;;;4.00;91.50;;;;;;5033306;28;20060;-62
2024/03/05 07:15:28;;;;;;;11.82;6.00;;;4.00;91.50;;;;;;5043205;28;20098;-64
2024/03/05 07:17:53;;;;;;;14.02;6.30;;;4.00;91.40;;;;;;5035647;28;20029;-62
2024/03/05 07:20:19;;;;;;;12.48;5.53;;;4.00;91.50;;;;;;5042234;28;20152;-63
2024/03/05 07:22:46;;;;;;;11.45;6.03;;;4.10;91.50;;;;;;5029998;28;20060;-62
2024/03/05 07:25:14;;;;;;;10.60;6.03;;;4.10;91.40;;;;;;5044993;28;20083;-63
2024/03/05 07:27:43;;;;;;;12.38;6.03;;;4.10;91.20;;;;;;5037883;28;20072;-62
2024/03/05 07:30:12;;;;;;;11.23;5.95;;;4.10;91.50;;;;;;5038533;28;20041;-65
2024/03/05 07:32:37;;;;;;;9.30;5.60;;;4.20;91.30;;;;;;5041248;28;20036;-62
2024/03/05 07:35:04;;;;;;;10.38;5.68;;;4.10;91.00;;;;;;5034459;28;20108;-62
2024/03/05 07:37:29;;;;;;;10.00;5.57;;;4.10;91.10;;;;;;5035725;28;20042;-63
2024/03/05 07:39:55;;;;;;;11.90;6.05;;;4.20;91.10;;;;;;5033730;28;20087;-62
2024/03/05 07:42:20;;;;;;;14.13;6.97;;;4.10;90.80;;;;;;5028576;28;20050;-63
2024/03/05 07:44:45;;;;;;;11.00;5.72;;;4.20;90.80;;;;;;5038632;28;20021;-62
2024/03/05 07:47:11;;;;;;;9.55;5.53;;;4.20;90.60;;;;;;5035530;28;20066;-63
2024/03/05 07:49:36;;;;;;;12.63;5.95;;;4.30;90.70;;;;;;5041230;28;20037;-63
2024/03/05 07:52:02;;;;;;;9.52;5.55;;;4.30;90.40;;;;;;5039739;28;20120;-62
2024/03/05 07:54:27;;;;;;;12.38;5.43;;;4.30;90.30;;;;;;5035064;28;20077;-63
2024/03/05 07:56:53;;;;;;;9.32;4.82;;;4.30;90.60;;;;;;5034384;28;20203;-63
2024/03/05 07:59:18;;;;;;;9.20;5.70;;;4.50;90.50;;;;;;5037652;28;20498;-62
2024/03/05 08:01:45;;;;;;;10.18;5.47;;;4.40;90.30;;;;;;5026805;28;20025;-63
2024/03/05 08:04:11;;;;;;;11.13;6.05;;;4.50;90.20;;;;;;5032174;28;20029;-62
2024/03/05 08:06:36;;;;;;;9.50;5.63;;;4.50;90.00;;;;;;5031514;28;20029;-63
2024/03/05 08:09:03;;;;;;;11.98;6.20;;;4.50;89.80;;;;;;5030272;28;20025;-64
2024/03/05 08:11:29;;;;;;;9.85;5.13;;;4.50;89.80;;;;;;5042809;28;20044;-62
2024/03/05 08:13:55;;;;;;;9.90;4.93;;;4.60;89.90;;;;;;5032267;28;20025;-61
2024/03/05 08:16:20;;;;;;;16.05;5.65;;;4.60;89.80;;;;;;5047859;28;20039;-63
2024/03/05 08:18:46;;;;;;;11.02;6.00;;;4.60;89.60;;;;;;5031917;28;20143;-62
2024/03/05 08:21:13;;;;;;;9.43;5.55;;;4.60;89.70;;;;;;5033906;28;20030;-62
2024/03/05 08:23:38;;;;;;;11.95;5.75;;;4.50;89.70;;;;;;5040689;28;20449;-63
2024/03/05 08:26:05;;;;;;;10.82;5.70;;;4.60;89.70;;;;;;5039632;28;20067;-63
2024/03/05 08:28:30;;;;;;;10.40;6.43;;;4.60;89.60;;;;;;5025566;28;20442;-63
2024/03/05 08:30:56;;;;;;;10.25;5.97;;;4.70;89.40;;;;;;5033258;28;20044;-62
2024/03/05 08:33:23;;;;;;;11.30;6.28;;;4.70;89.00;;;;;;5039114;28;20026;-62
2024/03/05 08:35:48;;;;;;;11.73;6.03;;;4.70;88.90;;;;;;5036431;28;20028;-63
2024/03/05 08:38:14;;;;;;;7.55;4.78;;;4.70;89.10;;;;;;5036319;28;20047;-62
2024/03/05 08:40:39;;;;;;;10.20;5.10;;;4.80;89.00;;;;;;5029604;28;20446;-62
2024/03/05 08:43:07;;;;;;;10.57;5.63;;;4.80;88.70;;;;;;5034269;28;20060;-62
2024/03/05 08:45:36;;;;;;;14.15;5.07;;;4.90;88.50;;;;;;5035276;28;20430;-62
2024/03/05 08:48:01;;;;;;;12.10;5.38;;;4.90;88.40;;;;;;5036055;28;20434;-62
2024/03/05 08:50:29;;;;;;;11.50;5.20;;;4.90;88.40;;;;;;5029472;28;20060;-63
2024/03/05 08:52:55;;;;;;;12.32;6.18;;;5.00;88.40;;;;;;5026865;28;20219;-62
2024/03/05 08:55:20;;;;;;;13.60;6.43;;;5.00;88.40;;;;;;5032060;28;20119;-62
2024/03/05 08:57:46;;;;;;;8.10;4.95;;;5.00;88.00;;;;;;5034049;28;20028;-63
2024/03/05 09:00:15;;;;;;;8.43;5.07;;;5.10;88.00;;;;;;5031733;28;20052;-62
2024/03/05 09:02:42;;;;;;;9.60;5.32;;;5.20;87.50;;;;;;5038410;28;20329;-62
2024/03/05 09:05:09;;;;;;;7.38;4.70;;;5.20;87.90;;;;;;5036818;28;20188;-62
2024/03/05 09:07:38;;;;;;;10.00;5.47;;;5.20;87.10;;;;;;5028380;28;20052;-64
2024/03/05 09:10:09;;;;;;;10.98;5.05;;;5.10;87.20;;;;;;5031091;28;20032;-61
2024/03/05 09:12:35;;;;;;;;;;;5.20;87.00;;;;;;5029539;28;20047;-62
2024/03/05 09:15:00;;;;;;;14.05;5.28;;;5.10;87.20;;;;;;5037763;28;19905;-64
2024/03/05 09:17:26;;;;;;;10.40;5.57;;;5.10;87.00;;;;;;5037630;28;20037;-62
2024/03/05 09:19:52;;;;;;;11.05;5.20;;;5.30;86.90;;;;;;5043805;28;20473;-62
2024/03/05 09:22:19;;;;;;;9.02;5.10;;;5.30;86.70;;;;;;5037919;28;20128;-63
2024/03/05 09:24:44;;;;;;;10.50;5.55;;;5.40;86.60;;;;;;5042624;28;20060;-65
2024/03/05 09:27:10;;;;;;;10.35;5.47;;;5.30;85.70;;;;;;5029440;28;20079;-63
2024/03/05 09:29:36;;;;;;;12.00;5.95;;;5.40;86.00;;;;;;5036878;28;20470;-63
2024/03/05 09:32:01;;;;;;;9.80;5.38;;;5.40;85.70;;;;;;5033209;28;20224;-63
2024/03/05 09:34:28;;;;;;;9.55;4.72;;;5.50;85.60;;;;;;5032605;28;20033;-62
2024/03/05 09:36:56;;;;;;;8.30;4.82;;;5.50;85.70;;;;;;5034890;28;20025;-62
2024/03/05 09:39:21;;;;;;;9.05;4.95;;;5.60;85.70;;;;;;5030477;28;20042;-62
2024/03/05 09:41:48;;;;;;;9.05;5.25;;;5.80;85.80;;;;;;5029082;28;20160;-64
2024/03/05 09:44:15;;;;;;;11.82;5.50;;;5.70;84.90;;;;;;5027938;28;20126;-63
2024/03/05 09:46:48;;;;;;;7.63;4.78;;;5.60;84.70;;;;;;5038369;28;20038;-62
2024/03/05 09:49:16;;;;;;;9.20;5.00;;;5.40;84.30;;;;;;5027524;28;20029;-62
2024/03/05 09:51:42;;;;;;;8.38;5.20;;;5.50;84.90;;;;;;5029129;28;20407;-61
2024/03/05 09:54:10;;;;;;;9.82;4.93;;;5.60;84.90;;;;;;5038653;28;20029;-62
2024/03/05 09:56:44;;;;;;;7.82;4.78;;;5.60;84.10;;;;;;5034561;28;20195;-64
2024/03/05 09:59:16;;;;;;;12.23;5.20;;;5.90;84.10;;;;;;5036103;28;20033;-62
2024/03/05 10:01:44;;;;;;;8.55;5.03;;;5.90;83.60;;;;;;5033923;28;20101;-62
2024/03/05 10:04:15;;;;;;;7.05;4.43;;;6.10;83.80;;;;;;5033172;28;20449;-62
2024/03/05 10:06:45;;;;;;;8.82;4.00;;;6.20;83.40;;;;;;5035985;28;20417;-62
2024/03/05 10:09:12;;;;;;;9.25;4.63;;;6.20;83.00;;;;;;5035200;28;20029;-62
2024/03/05 10:11:38;;;;;;;10.40;4.40;;;6.10;82.60;;;;;;5036238;28;20041;-62
2024/03/05 10:14:05;;;;;;;7.15;3.90;;;6.20;82.80;;;;;;5041226;28;20128;-63
2024/03/05 10:16:31;;;;;;;7.13;4.13;;;6.40;82.70;;;;;;5039388;28;20560;-62
2024/03/05 10:18:56;;;;;;;7.75;3.88;;;6.40;82.00;;;;;;5041525;28;20104;-63
2024/03/05 10:21:25;;;;;;;6.82;3.72;;;6.40;81.60;;;;;;5042326;28;20029;-62
2024/03/05 10:24:05;;;;;;;6.90;3.75;;;6.50;81.60;;;;;;5042813;28;20025;-63
2024/03/05 10:26:31;;;;;;;6.57;3.60;;;6.30;80.40;;;;;;5038053;28;20017;-64
2024/03/05 10:28:59;;;;;;;7.03;3.70;;;6.50;81.10;;;;;;5035552;28;20060;-63
2024/03/05 10:31:27;;;;;;;7.57;4.15;;;6.70;81.20;;;;;;5036464;28;20040;-62
2024/03/05 10:33:56;;;;;;;7.03;3.72;;;6.60;79.80;;;;;;5037040;28;20063;-62
2024/03/05 10:37:01;;;;;;;9.10;3.92;;;6.40;80.10;;;;;;5035383;28;20053;-63
2024/03/05 10:39:27;;;;;;;7.07;3.65;;;6.50;79.70;;;;;;5027891;28;20048;-62
2024/03/05 10:41:53;;;;;;;7.10;2.92;;;6.70;80.10;;;;;;5037695;28;20111;-63
2024/03/05 10:44:19;;;;;;;5.47;3.30;;;6.60;79.80;;;;;;5040641;28;20128;-63
2024/03/05 10:46:46;;;;;;;4.55;2.92;;;6.80;79.60;;;;;;5042782;28;20089;-62
2024/03/05 10:49:13;;;;;;;5.82;3.22;;;7.00;79.00;;;;;;5038723;28;20597;-63
2024/03/05 10:51:40;;;;;;;5.55;3.33;;;6.70;79.10;;;;;;5037961;28;20071;-63
2024/03/05 10:54:07;;;;;;;7.18;3.90;;;6.90;79.00;;;;;;5034573;28;20182;-65
2024/03/05 10:56:36;;;;;;;9.45;3.60;;;7.10;77.90;;;;;;5040027;28;20326;-62
2024/03/05 11:01:44;;;;;;;6.57;3.63;;;7.30;75.50;;;;;;5036182;28;20111;-63
2024/03/05 11:04:22;;;;;;;6.32;3.17;;;7.60;75.90;;;;;;5038895;28;20311;-63
2024/03/05 11:06:52;;;;;;;6.30;3.22;;;7.70;74.90;;;;;;5035934;28;20144;-62
2024/03/05 11:09:19;;;;;;;4.90;2.75;;;7.80;75.50;;;;;;5030166;28;20187;-62
2024/03/05 11:11:48;;;;;;;5.30;2.90;;;8.20;74.30;;;;;;5041273;28;20032;-63
2024/03/05 11:14:15;;;;;;;6.25;3.05;;;8.30;74.30;;;;;;5039041;28;20090;-62
2024/03/05 11:16:46;;;;;;;4.35;2.78;;;8.20;72.60;;;;;;5033556;28;20057;-63
2024/03/05 11:19:13;;;;;;;5.22;2.95;;;8.60;73.40;;;;;;5035285;28;20412;-63
2024/03/05 11:21:39;;;;;;;6.90;3.08;;;8.90;72.60;;;;;;5039856;28;20070;-63
2024/03/05 11:24:06;;;;;;;5.65;2.45;;;8.80;72.70;;;;;;5039930;28;20099;-63
2024/03/05 11:26:33;;;;;;;5.20;2.63;;;9.50;72.10;;;;;;5034116;28;20116;-62
2024/03/05 11:29:17;;;;;;;5.95;2.63;;;9.40;69.20;;;;;;5036233;28;20107;-64
2024/03/05 11:31:50;;;;;;;5.57;2.65;;;9.50;67.90;;;;;;5035006;28;20044;-63
2024/03/05 11:34:17;;;;;;;6.97;3.00;;;9.50;68.90;;;;;;5036433;28;20055;-63
2024/03/05 11:36:44;;;;;;;3.80;2.15;;;9.20;68.90;;;;;;5034525;28;20052;-63
2024/03/05 11:39:14;;;;;;;6.38;3.13;;;9.30;68.40;;;;;;5042294;28;20380;-63
2024/03/05 11:41:44;;;;;;;5.63;2.27;;;8.80;68.60;;;;;;5035220;28;20143;-62
2024/03/05 11:44:43;;;;;;;4.03;2.42;;;8.40;69.20;;;;;;5039205;28;20040;-62
2024/03/05 11:47:08;;;;;;;6.13;2.90;;;8.30;70.10;;;;;;5030426;28;20147;-65
2024/03/05 11:49:37;;;;;;;7.20;2.78;;;8.10;71.60;;;;;;5039416;28;20116;-63
2024/03/05 11:52:03;;;;;;;5.28;2.80;;;7.90;72.10;;;;;;5037459;28;20105;-62
2024/03/05 11:54:32;;;;;;;5.38;3.10;;;7.90;72.20;;;;;;5040087;28;20131;-62
2024/03/05 11:56:59;;;;;;;4.55;2.60;;;8.30;72.40;;;;;;5038253;28;20324;-63
2024/03/05 11:59:34;;;;;;;5.65;2.72;;;8.60;71.70;;;;;;5038495;28;20044;-64
2024/03/05 12:02:00;;;;;;;5.97;2.42;;;8.80;70.80;;;;;;5038371;28;20468;-62
2024/03/05 12:04:26;;;;;;;4.72;2.45;;;8.90;70.70;;;;;;5040136;28;20068;-64
2024/03/05 12:07:02;;;;;;;7.00;2.53;;;8.60;69.50;;;;;;5035656;28;21192;-62
2024/03/05 12:09:27;;;;;;;4.40;2.40;;;8.30;71.20;;;;;;5039109;28;20526;-62
2024/03/05 12:12:05;;;;;;;4.47;2.40;;;8.10;71.60;;;;;;5039090;28;20107;-63
2024/03/05 12:14:34;;;;;;;5.07;2.30;;;7.90;72.20;;;;;;5037036;28;20030;-63
2024/03/05 12:17:03;;;;;;;5.30;2.58;;;8.00;72.30;;;;;;5039915;28;20159;-63
2024/03/05 12:19:30;;;;;;;5.20;2.70;;;8.20;71.80;;;;;;5042265;28;20485;-63
2024/03/05 12:21:58;;;;;;;5.32;2.80;;;8.40;70.80;;;;;;5033251;28;20116;-62
2024/03/05 12:24:23;;;;;;;6.32;3.15;;;8.50;70.90;;;;;;5037633;28;20397;-63
2024/03/05 12:26:50;;;;;;;4.43;2.20;;;8.40;70.80;;;;;;5037312;28;20025;-64
2024/03/05 12:29:36;;;;;;;5.20;2.67;;;8.40;70.50;;;;;;5034221;28;20037;-62
2024/03/05 12:32:08;;;;;;;5.82;2.85;;;8.40;71.10;;;;;;5038524;28;20491;-62
2024/03/05 12:34:39;;;;;;;4.03;2.30;;;8.30;70.50;;;;;;5039617;28;20343;-62
2024/03/05 12:37:08;;;;;;;5.25;2.90;;;7.80;71.50;;;;;;5041388;28;20025;-62
2024/03/05 12:39:35;;;;;;;7.63;2.83;;;8.00;71.70;;;;;;5042262;28;20067;-63
2024/03/05 12:42:02;;;;;;;4.30;2.38;;;8.10;71.80;;;;;;5034981;28;20061;-63
2024/03/05 12:44:30;;;;;;;3.75;2.17;;;9.10;71.10;;;;;;5029999;28;20026;-62
2024/03/05 12:47:12;;;;;;;4.68;2.55;;;9.50;68.70;;;;;;5034228;28;20099;-63
2024/03/05 12:49:40;;;;;;;3.50;1.88;;;9.70;66.60;;;;;;5033434;28;20092;-65
2024/03/05 12:52:07;;;;;;;4.47;2.38;;;10.30;64.90;;;;;;5033624;28;20071;-63
2024/03/05 12:54:33;;;;;;;3.50;2.17;;;10.50;64.10;;;;;;5031332;28;20059;-63
2024/03/05 12:56:58;;;;;;;3.90;2.28;;;10.50;63.60;;;;;;5033247;28;20044;-64
2024/03/05 12:59:25;;;;;;;3.85;1.98;;;11.00;63.40;;;;;;5032123;28;20444;-62
2024/03/05 13:01:50;;;;;;;5.28;2.53;;;11.60;62.90;;;;;;5036682;28;20036;-63